createdAt,value
2022-11-21T00:01:24.807Z,99447.41
2022-11-21T00:03:52.196Z,99498.91
2022-11-21T00:06:20.196Z,99495.44
2022-11-21T00:08:47.805Z,99491.16
2022-11-21T00:11:15.241Z,99500.44
2022-11-21T00:13:42.754Z,99485.16
2022-11-21T00:16:12.940Z,99492.84
2022-11-21T00:18:40.432Z,99491.09
2022-11-21T00:21:10.439Z,99473.19
2022-11-21T00:23:37.413Z,99479.13
2022-11-21T00:26:06.532Z,99470.53
2022-11-21T00:28:34.718Z,99474.94
2022-11-21T00:31:02.122Z,99480.78
2022-11-21T00:33:29.300Z,99478.25
2022-11-21T00:35:56.448Z,99479.88
2022-11-21T00:38:24.644Z,99479.88
2022-11-21T00:40:51.883Z,99487.47
2022-11-21T00:43:19.000Z,99487.47
2022-11-21T00:45:46.150Z,99491.69
2022-11-21T00:48:13.240Z,99494.94
2022-11-21T00:50:40.360Z,99498.28
2022-11-21T00:53:07.434Z,99488.88
2022-11-21T00:55:34.599Z,99499.91
2022-11-21T00:58:01.720Z,99492.22
2022-11-21T01:00:28.955Z,99489.69
2022-11-21T01:02:56.527Z,99482.72
2022-11-21T01:05:25.015Z,99497.28
2022-11-21T01:07:52.089Z,99489.59
2022-11-21T01:10:19.359Z,99491.22
2022-11-21T01:12:46.478Z,99482.63
2022-11-21T01:15:13.758Z,99482.53
2022-11-21T01:17:41.004Z,99497.75
2022-11-21T01:20:08.773Z,99512.03
2022-11-21T01:22:36.081Z,99506.88
2022-11-21T01:25:03.724Z,99509.31
2022-11-21T01:27:30.924Z,99515.91
2022-11-21T01:29:58.083Z,99501.13
2022-11-21T01:32:25.233Z,99513.66
2022-11-21T01:34:52.413Z,99535.06
2022-11-21T01:37:19.519Z,99534.66
2022-11-21T01:39:46.640Z,99518.75
2022-11-21T01:42:14.254Z,99523.91
2022-11-21T01:44:52.233Z,99527.25
2022-11-21T01:47:19.923Z,99507.72
2022-11-21T01:49:47.883Z,99517.66
2022-11-21T01:52:26.309Z,99510.81
2022-11-21T01:54:58.331Z,99532.56
2022-11-21T01:57:25.399Z,99538.47
2022-11-21T02:00:23.631Z,99535.16
2022-11-21T02:02:55.542Z,99518.69
2022-11-21T02:05:26.698Z,99534.81
2022-11-21T02:07:58.315Z,99531.91
2022-11-21T02:10:25.864Z,99529.25
2022-11-21T02:12:55.632Z,99526.72
2022-11-21T02:15:25.648Z,99522.25
2022-11-21T02:17:52.638Z,99524.63
2022-11-21T02:20:23.403Z,99518.59
2022-11-21T02:23:12.438Z,99508.50
2022-11-21T02:25:42.494Z,99512.72
2022-11-21T02:28:11.798Z,99516.91
2022-11-21T02:30:41.409Z,99504.94
2022-11-21T02:33:09.838Z,99507.66
2022-11-21T02:35:36.967Z,99493.31
2022-11-21T02:38:16.102Z,99496.88
2022-11-21T02:40:51.877Z,99488.59
2022-11-21T02:43:48.153Z,99491.16
2022-11-21T02:46:15.273Z,99485.38
2022-11-21T02:48:42.522Z,99486.31
2022-11-21T02:51:09.639Z,99482.25
2022-11-21T02:53:36.874Z,99465.56
2022-11-21T02:56:04.082Z,99480.09
2022-11-21T02:58:31.575Z,99484.66
2022-11-21T03:00:58.799Z,99481.53
2022-11-21T03:03:26.052Z,99473.13
2022-11-21T03:05:53.324Z,99478.28
2022-11-21T03:08:20.441Z,99478.38
2022-11-21T03:10:47.646Z,99481.72
2022-11-21T03:13:14.848Z,99480.78
2022-11-21T03:15:42.046Z,99479.91
2022-11-21T03:18:09.121Z,99436.16
2022-11-21T03:20:36.359Z,99467.88
2022-11-21T03:23:03.882Z,99478.00
2022-11-21T03:25:31.603Z,99478.09
2022-11-21T03:27:58.890Z,99460.13
2022-11-21T03:30:27.901Z,99467.13
2022-11-21T03:32:58.703Z,99457.44
2022-11-21T03:35:26.010Z,99467.78
2022-11-21T03:37:53.551Z,99471.28
2022-11-21T03:40:20.752Z,99476.56
2022-11-21T03:42:47.862Z,99462.06
2022-11-21T03:45:15.034Z,99468.25
2022-11-21T03:47:42.451Z,99451.06
2022-11-21T03:50:10.883Z,99462.19
2022-11-21T03:52:37.919Z,99459.56
2022-11-21T03:55:05.480Z,99460.41
2022-11-21T03:57:32.554Z,99449.44
2022-11-21T03:59:59.733Z,99453.72
2022-11-21T04:02:27.049Z,99443.53
2022-11-21T04:04:54.194Z,99447.75
2022-11-21T04:07:21.411Z,99437.44
2022-11-21T04:09:48.592Z,99439.06
2022-11-21T04:12:15.722Z,99444.28
2022-11-21T04:14:42.969Z,99443.53
2022-11-21T04:17:10.158Z,99439.53
2022-11-21T04:19:37.240Z,99431.03
2022-11-21T04:22:04.348Z,99430.13
2022-11-21T04:24:31.534Z,99417.31
2022-11-21T04:26:58.640Z,99415.66
2022-11-21T04:29:25.726Z,99417.19
2022-11-21T04:31:52.836Z,99426.41
2022-11-21T04:34:19.921Z,99417.16
2022-11-21T04:36:47.066Z,99405.16
2022-11-21T04:39:14.281Z,99411.16
2022-11-21T04:41:41.438Z,99404.34
2022-11-21T04:44:08.638Z,99417.19
2022-11-21T04:46:35.845Z,99408.84
2022-11-21T04:49:03.058Z,99426.06
2022-11-21T04:51:30.112Z,99414.22
2022-11-21T04:53:57.200Z,99415.28
2022-11-21T04:56:24.254Z,99411.16
2022-11-21T04:58:53.245Z,99419.84
2022-11-21T05:01:20.407Z,99417.41
2022-11-21T05:03:47.609Z,99418.31
2022-11-21T05:06:15.890Z,99408.13
2022-11-21T05:08:45.612Z,99415.00
2022-11-21T05:11:33.598Z,99404.97
2022-11-21T05:14:00.799Z,99396.47
2022-11-21T05:16:28.121Z,99394.94
2022-11-21T05:18:55.230Z,99395.03
2022-11-21T05:21:22.488Z,99362.47
2022-11-21T05:23:49.688Z,99388.34
2022-11-21T05:26:16.895Z,99376.41
2022-11-21T05:28:44.129Z,99371.31
2022-11-21T05:31:11.271Z,99391.66
2022-11-21T05:33:38.438Z,99385.81
2022-11-21T05:36:05.751Z,99381.75
2022-11-21T05:38:32.832Z,99358.81
2022-11-21T05:40:59.943Z,99366.66
2022-11-21T05:43:45.777Z,99365.75
2022-11-21T05:46:21.791Z,99358.13
2022-11-21T05:48:50.449Z,99365.88
2022-11-21T05:51:18.519Z,99354.88
2022-11-21T05:53:46.238Z,99355.84
2022-11-21T05:56:18.519Z,99360.91
2022-11-21T05:58:46.340Z,99357.63
2022-11-21T06:01:15.385Z,99356.06
2022-11-21T06:03:43.421Z,99359.47
2022-11-21T06:06:13.050Z,99356.22
2022-11-21T06:08:45.650Z,99357.13
2022-11-21T06:11:15.638Z,99365.75
2022-11-21T06:13:43.178Z,99360.72
2022-11-21T06:16:15.641Z,99365.78
2022-11-21T06:18:45.173Z,99368.44
2022-11-21T06:21:18.073Z,99361.69
2022-11-21T06:23:45.869Z,99365.94
2022-11-21T06:26:15.393Z,99365.94
2022-11-21T06:28:43.782Z,99361.78
2022-11-21T06:31:16.448Z,99360.97
2022-11-21T06:33:44.659Z,99362.59
2022-11-21T06:36:14.467Z,99359.34
2022-11-21T06:38:42.001Z,99362.66
2022-11-21T06:41:23.819Z,99364.41
2022-11-21T06:43:50.928Z,99363.56
2022-11-21T06:46:18.280Z,99371.19
2022-11-21T06:48:45.684Z,99379.75
2022-11-21T06:51:22.353Z,99378.94
2022-11-21T06:53:57.424Z,99383.28
2022-11-21T06:56:29.245Z,99374.94
2022-11-21T06:58:57.159Z,99383.50
2022-11-21T07:01:24.508Z,99387.81
2022-11-21T07:03:52.053Z,99376.91
2022-11-21T07:06:19.280Z,99374.41
2022-11-21T07:08:46.368Z,99380.41
2022-11-21T07:11:30.315Z,99378.78
2022-11-21T07:13:57.586Z,99378.78
2022-11-21T07:16:26.629Z,99371.03
2022-11-21T07:18:53.810Z,99382.31
2022-11-21T07:21:20.922Z,99366.25
2022-11-21T07:23:48.892Z,99367.97
2022-11-21T07:26:16.080Z,99375.69
2022-11-21T07:28:43.542Z,99378.22
2022-11-21T07:31:13.725Z,99379.09
2022-11-21T07:33:43.807Z,99374.09
2022-11-21T07:36:12.313Z,99356.19
2022-11-21T07:38:41.305Z,99360.75
2022-11-21T07:41:09.449Z,99367.53
2022-11-21T07:43:36.702Z,99369.19
2022-11-21T07:46:03.895Z,99369.13
2022-11-21T07:48:31.224Z,99375.06
2022-11-21T07:50:58.494Z,99370.06
2022-11-21T07:53:25.735Z,99367.53
2022-11-21T07:55:53.340Z,99362.47
2022-11-21T07:58:20.435Z,99355.69
2022-11-21T08:00:47.747Z,99369.34
2022-11-21T08:03:15.029Z,99359.28
2022-11-21T08:05:44.084Z,99367.78
2022-11-21T08:08:12.543Z,99359.19
2022-11-21T08:10:42.540Z,99366.09
2022-11-21T08:13:09.829Z,99357.63
2022-11-21T08:15:38.311Z,99354.28
2022-11-21T08:18:16.453Z,99361.16
2022-11-21T08:20:43.651Z,99365.38
2022-11-21T08:23:11.145Z,99364.59
2022-11-21T08:25:42.231Z,99374.72
2022-11-21T08:28:11.569Z,99367.94
2022-11-21T08:30:40.126Z,99373.91
2022-11-21T08:33:07.897Z,99365.50
2022-11-21T08:35:38.302Z,99370.66
2022-11-21T08:38:06.031Z,99364.72
2022-11-21T08:40:34.489Z,99359.66
2022-11-21T08:43:03.213Z,99351.34
2022-11-21T08:45:31.494Z,99330.91
2022-11-21T08:47:58.663Z,99348.16
2022-11-21T08:50:26.651Z,99343.22
2022-11-21T08:52:54.252Z,99348.22
2022-11-21T08:55:23.283Z,99344.78
2022-11-21T08:57:50.403Z,99337.94
2022-11-21T09:00:17.641Z,99338.84
2022-11-21T09:02:45.092Z,99345.78
2022-11-21T09:05:12.231Z,99347.53
2022-11-21T09:07:39.408Z,99350.81
2022-11-21T09:10:07.276Z,99349.06
2022-11-21T09:12:34.370Z,99350.88
2022-11-21T09:15:20.246Z,99358.50
2022-11-21T09:18:05.411Z,99354.25
2022-11-21T09:20:36.843Z,99350.81
2022-11-21T09:23:11.568Z,99364.44
2022-11-21T09:25:39.251Z,99354.19
2022-11-21T09:28:09.097Z,99349.94
2022-11-21T09:30:37.214Z,99355.09
2022-11-21T09:33:10.039Z,99349.38
2022-11-21T09:35:37.365Z,99357.88
2022-11-21T09:38:05.018Z,99350.28
2022-11-21T09:40:33.570Z,99357.88
2022-11-21T09:43:32.280Z,99357.88
2022-11-21T09:46:11.006Z,99346.78
2022-11-21T09:48:55.342Z,99353.78
2022-11-21T09:51:23.823Z,99343.63
2022-11-21T09:53:57.965Z,99347.13
2022-11-21T09:56:27.769Z,99345.56
2022-11-21T09:59:28.000Z,99345.63
2022-11-21T10:01:55.452Z,99333.75
2022-11-21T10:04:22.679Z,99336.34
2022-11-21T10:07:07.735Z,99339.09
2022-11-21T10:10:12.647Z,99325.63
2022-11-21T10:13:24.718Z,99323.97
2022-11-21T10:16:13.413Z,99311.28
2022-11-21T10:19:10.521Z,99276.19
2022-11-21T10:21:46.384Z,99315.53
2022-11-21T10:24:19.361Z,99305.38
2022-11-21T10:27:00.440Z,99305.31
2022-11-21T10:29:39.253Z,99296.91
2022-11-21T10:32:27.690Z,99296.81
2022-11-21T10:35:18.050Z,99302.75
2022-11-21T10:38:01.249Z,99289.94
2022-11-21T10:40:45.891Z,99289.13
2022-11-21T10:43:37.243Z,99291.69
2022-11-21T10:46:04.452Z,99291.75
2022-11-21T10:48:31.721Z,99281.53
2022-11-21T10:51:14.118Z,99281.59
2022-11-21T10:54:04.655Z,99282.41
2022-11-21T10:56:36.610Z,99272.97
2022-11-21T10:59:22.611Z,99281.31
2022-11-21T11:01:59.649Z,99274.59
2022-11-21T11:04:43.995Z,99273.00
2022-11-21T11:07:28.874Z,99280.63
2022-11-21T11:10:26.754Z,99275.56
2022-11-21T11:16:10.009Z,99273.00
2022-11-21T11:18:48.651Z,99274.72
2022-11-21T11:21:21.922Z,99273.06
2022-11-21T11:23:54.029Z,99273.00
2022-11-21T11:26:28.085Z,99273.06
2022-11-21T11:29:18.065Z,99277.34
2022-11-21T11:31:50.604Z,99269.84
2022-11-21T11:34:18.451Z,99266.50
2022-11-21T11:37:11.932Z,99269.13
2022-11-21T11:39:42.204Z,99274.91
2022-11-21T11:42:47.146Z,99281.69
2022-11-21T11:45:32.959Z,99283.44
2022-11-21T11:48:12.759Z,99266.41
2022-11-21T11:50:49.422Z,99262.19
2022-11-21T11:53:30.731Z,99266.41
2022-11-21T11:56:16.461Z,99270.69
2022-11-21T11:58:43.633Z,99273.19
2022-11-21T12:01:13.422Z,99269.84
2022-11-21T12:04:10.621Z,99281.63
2022-11-21T12:10:06.765Z,99280.06
2022-11-21T12:12:45.861Z,99285.19
2022-11-21T12:15:38.560Z,99280.97
2022-11-21T12:18:55.005Z,99268.19
2022-11-21T12:21:23.817Z,99285.19
2022-11-21T12:23:59.129Z,99286.84
2022-11-21T12:26:56.808Z,99290.25
2022-11-21T12:29:26.869Z,99298.78
2022-11-21T12:32:08.931Z,99300.38
2022-11-21T12:35:12.771Z,99307.09
2022-11-21T12:38:15.163Z,99320.63
2022-11-21T12:41:00.177Z,99324.13
2022-11-21T12:44:11.748Z,99325.81
2022-11-21T12:46:53.725Z,99330.94
2022-11-21T12:50:02.988Z,99315.66
2022-11-21T12:53:00.320Z,99292.69
2022-11-21T12:55:35.041Z,99317.19
2022-11-21T12:58:17.917Z,99303.59
2022-11-21T13:01:06.903Z,99301.03
2022-11-21T13:03:57.099Z,99298.47
2022-11-21T13:06:26.334Z,99284.81
2022-11-21T13:08:55.449Z,99290.63
2022-11-21T13:12:00.318Z,99294.06
2022-11-21T13:14:40.403Z,99292.38
2022-11-21T13:17:18.601Z,99297.38
2022-11-21T13:19:59.013Z,99297.50
2022-11-21T13:22:56.551Z,99305.19
2022-11-21T13:25:33.069Z,99298.50
2022-11-21T13:28:18.958Z,99311.28
2022-11-21T13:30:54.294Z,99315.59
2022-11-21T13:33:36.424Z,99313.75
2022-11-21T13:36:08.094Z,99314.47
2022-11-21T13:38:56.375Z,99301.78
2022-11-21T13:41:54.341Z,99298.34
2022-11-21T13:44:33.595Z,99298.34
2022-11-21T13:47:10.009Z,99302.63
2022-11-21T13:50:04.676Z,99301.84
2022-11-21T13:52:49.699Z,99306.06
2022-11-21T13:55:36.013Z,99320.56
2022-11-21T13:58:24.605Z,99325.63
2022-11-21T14:01:13.234Z,99323.97
2022-11-21T14:03:59.050Z,99324.88
2022-11-21T14:06:38.053Z,99327.41
2022-11-21T14:09:14.163Z,99334.22
2022-11-21T14:11:48.376Z,99337.66
2022-11-21T14:14:33.778Z,99339.41
2022-11-21T14:17:39.883Z,99344.50
2022-11-21T14:20:23.763Z,99336.03
2022-11-21T14:23:20.575Z,99339.47
2022-11-21T14:25:57.818Z,99331.81
2022-11-21T14:28:27.173Z,99323.16
2022-11-21T14:31:00.049Z,99339.19
2022-11-21T14:33:47.778Z,99326.50
2022-11-21T14:36:30.134Z,99335.00
2022-11-21T14:39:36.607Z,99335.84
2022-11-21T14:41:57.135Z,99333.34
2022-11-21T14:44:24.896Z,99342.75
2022-11-21T14:47:06.511Z,99341.06
2022-11-21T14:49:33.699Z,99341.06
2022-11-21T14:52:18.029Z,99342.69
2022-11-21T14:55:28.530Z,99342.69
2022-11-21T14:57:45.141Z,99338.41
2022-11-21T15:00:43.290Z,99341.78
2022-11-21T15:03:04.395Z,99328.13
2022-11-21T15:06:00.896Z,99341.84
2022-11-21T15:11:14.244Z,99335.78
2022-11-21T15:14:12.127Z,99342.56
2022-11-21T15:16:31.385Z,99351.91
2022-11-21T15:18:58.686Z,99357.81
2022-11-21T15:21:25.929Z,99352.78
2022-11-21T15:23:55.797Z,99353.59
2022-11-21T15:26:31.460Z,99347.66
2022-11-21T15:29:00.220Z,99352.00
2022-11-21T15:31:28.270Z,99349.34
2022-11-21T15:34:34.745Z,99353.63
2022-11-21T15:37:24.220Z,99353.66
2022-11-21T15:39:53.571Z,99344.22
2022-11-21T15:42:32.704Z,99352.78
2022-11-21T15:45:02.592Z,99352.78
2022-11-21T15:47:29.909Z,99361.31
2022-11-21T15:49:57.176Z,99351.03
2022-11-21T15:52:24.409Z,99361.31
2022-11-21T15:54:51.653Z,99355.38
2022-11-21T15:59:47.013Z,99359.63
2022-11-21T16:02:14.793Z,99373.31
2022-11-21T16:04:42.812Z,99365.72
2022-11-21T16:07:10.013Z,99363.16
2022-11-21T16:09:38.048Z,99361.50
2022-11-21T16:12:05.420Z,99354.72
2022-11-21T16:14:32.574Z,99359.78
2022-11-21T16:16:59.699Z,99363.22
2022-11-21T16:19:27.140Z,99362.38
2022-11-21T16:21:54.508Z,99369.16
2022-11-21T16:24:21.763Z,99361.44
2022-11-21T16:26:53.569Z,99370.00
2022-11-21T16:29:20.957Z,99369.16
2022-11-21T16:31:50.526Z,99362.31
2022-11-21T16:34:20.846Z,99354.66
2022-11-21T16:36:48.000Z,99364.00
2022-11-21T16:39:18.252Z,99360.53
2022-11-21T16:41:46.940Z,99358.09
2022-11-21T16:44:15.928Z,99357.28
2022-11-21T16:46:48.340Z,99349.63
2022-11-21T16:49:15.559Z,99351.31
2022-11-21T16:51:42.686Z,99354.75
2022-11-21T16:54:09.920Z,99352.28
2022-11-21T16:56:37.294Z,99353.13
2022-11-21T16:59:04.642Z,99349.72
2022-11-21T17:01:32.025Z,99355.63
2022-11-21T17:03:59.501Z,99353.94
2022-11-21T17:06:30.207Z,99355.59
2022-11-21T17:09:00.261Z,99355.63
2022-11-21T17:11:29.575Z,99359.84
2022-11-21T17:14:01.322Z,99354.72
2022-11-21T17:16:29.050Z,99357.19
2022-11-21T17:18:58.298Z,99356.34
2022-11-21T17:21:26.930Z,99349.50
2022-11-21T17:23:54.675Z,99355.44
2022-11-21T17:26:24.691Z,99355.41
2022-11-21T17:28:57.459Z,99342.63
2022-11-21T17:31:25.562Z,99352.84
2022-11-21T17:33:55.003Z,99342.69
2022-11-21T17:36:24.825Z,99352.00
2022-11-21T17:38:53.132Z,99357.94
2022-11-21T17:41:22.512Z,99364.75
2022-11-21T17:43:53.443Z,99373.22
2022-11-21T17:46:20.880Z,99374.13
2022-11-21T17:48:55.023Z,99378.31
2022-11-21T17:51:34.714Z,99373.22
2022-11-21T17:54:02.809Z,99373.16
2022-11-21T17:56:32.883Z,99369.75
2022-11-21T17:58:59.928Z,99368.09
2022-11-21T18:01:27.482Z,99368.09
2022-11-21T18:04:03.389Z,99364.75
2022-11-21T18:06:36.259Z,99364.75
2022-11-21T18:09:05.581Z,99364.75
2022-11-21T18:11:39.569Z,99373.16
2022-11-21T18:14:09.245Z,99363.88
2022-11-21T18:16:36.496Z,99363.00
2022-11-21T18:19:03.813Z,99364.59
2022-11-21T18:21:33.240Z,99369.75
2022-11-21T18:24:00.600Z,99364.59
2022-11-21T18:26:30.337Z,99364.69
2022-11-21T18:31:47.900Z,99371.47
2022-11-21T18:34:15.053Z,99374.91
2022-11-21T18:36:42.557Z,99381.63
2022-11-21T18:39:14.772Z,99383.25
2022-11-21T18:41:43.499Z,99390.81
2022-11-21T18:44:14.592Z,99386.56
2022-11-21T18:46:44.533Z,99384.84
2022-11-21T18:49:11.716Z,99384.00
2022-11-21T18:51:38.839Z,99382.25
2022-11-21T18:54:08.820Z,99388.28
2022-11-21T18:56:37.846Z,99387.44
2022-11-21T18:59:06.760Z,99396.78
2022-11-21T19:01:35.681Z,99408.66
2022-11-21T19:04:03.661Z,99408.66
2022-11-21T19:06:31.052Z,99401.81
2022-11-21T19:08:59.147Z,99403.50
2022-11-21T19:11:29.243Z,99408.53
2022-11-21T19:13:56.904Z,99413.53
2022-11-21T19:16:26.519Z,99398.25
2022-11-21T19:19:26.395Z,99396.44
2022-11-21T19:21:42.505Z,99406.81
2022-11-21T19:24:14.633Z,99404.28
2022-11-21T19:26:42.487Z,99403.38
2022-11-21T19:29:10.407Z,99401.59
2022-11-21T19:31:44.251Z,99401.53
2022-11-21T19:34:14.248Z,99393.78
2022-11-21T19:36:41.620Z,99415.13
2022-11-21T19:39:09.281Z,99415.06
2022-11-21T19:41:36.900Z,99421.91
2022-11-21T19:44:04.571Z,99430.41
2022-11-21T19:46:34.868Z,99432.84
2022-11-21T19:49:02.729Z,99432.00
2022-11-21T19:51:41.418Z,99431.91
2022-11-21T19:54:11.285Z,99418.31
2022-11-21T19:56:38.552Z,99430.28
2022-11-21T19:59:05.936Z,99432.84
2022-11-21T20:01:34.929Z,99429.38
2022-11-21T20:04:04.877Z,99428.53
2022-11-21T20:06:41.782Z,99433.78
2022-11-21T20:09:11.724Z,99432.13
2022-11-21T20:11:41.046Z,99437.19
2022-11-21T20:14:08.669Z,99435.50
2022-11-21T20:16:38.742Z,99441.47
2022-11-21T20:19:07.531Z,99438.88
2022-11-21T20:21:34.790Z,99433.78
2022-11-21T20:24:02.486Z,99436.41
2022-11-21T20:26:30.201Z,99439.75
2022-11-21T20:28:57.560Z,99440.56
2022-11-21T20:31:28.081Z,99449.16
2022-11-21T20:34:00.984Z,99455.09
2022-11-21T20:36:30.420Z,99441.50
2022-11-21T20:39:01.651Z,99450.84
2022-11-21T20:41:31.643Z,99452.59
2022-11-21T20:46:52.449Z,99450.94
2022-11-21T20:49:19.625Z,99454.38
2022-11-21T20:53:36.615Z,99455.25
2022-11-21T20:54:35.246Z,99462.94
2022-11-21T20:57:02.650Z,99450.06
2022-11-21T20:59:30.139Z,99461.25
2022-11-21T21:01:57.670Z,99456.16
2022-11-21T21:04:24.924Z,99453.63
2022-11-21T21:06:52.218Z,99447.66
2022-11-21T21:09:19.524Z,99439.84
2022-11-21T21:11:54.220Z,99439.06
2022-11-21T21:14:22.509Z,99454.44
2022-11-21T21:16:50.517Z,99451.88
2022-11-21T21:19:18.730Z,99446.75
2022-11-21T21:21:46.336Z,99455.16
2022-11-21T21:24:14.533Z,99446.63
2022-11-21T21:26:45.461Z,99450.91
2022-11-21T21:29:16.018Z,99444.06
2022-11-21T21:31:49.883Z,99430.41
2022-11-21T21:34:18.411Z,99428.78
2022-11-21T21:36:45.650Z,99433.91
2022-11-21T21:39:13.124Z,99433.91
2022-11-21T21:41:44.741Z,99437.28
2022-11-21T21:44:12.797Z,99433.84
2022-11-21T21:46:39.892Z,99435.56
2022-11-21T21:49:07.050Z,99447.50
2022-11-21T21:51:36.180Z,99443.28
2022-11-21T21:54:03.601Z,99429.75
2022-11-21T21:56:30.782Z,99430.59
2022-11-21T21:58:58.653Z,99428.00
2022-11-21T22:01:31.399Z,99428.91
2022-11-21T22:04:01.397Z,99421.25
2022-11-21T22:06:29.561Z,99424.78
2022-11-21T22:08:56.979Z,99434.13
2022-11-21T22:11:29.594Z,99430.78
2022-11-21T22:14:05.801Z,99429.03
2022-11-21T22:16:33.457Z,99427.41
2022-11-21T22:19:00.631Z,99428.22
2022-11-21T22:21:32.617Z,99431.63
2022-11-21T22:26:52.410Z,99435.84
2022-11-21T22:29:19.657Z,99388.69
2022-11-21T22:31:46.929Z,99437.41
2022-11-21T22:34:14.652Z,99435.56
2022-11-21T22:36:42.322Z,99416.75
2022-11-21T22:39:09.828Z,99443.34
2022-11-21T22:41:37.031Z,99435.78
2022-11-21T22:44:04.592Z,99423.81
2022-11-21T22:46:31.872Z,99435.63
2022-11-21T22:48:59.325Z,99430.47
2022-11-21T22:51:29.923Z,99433.91
2022-11-21T22:53:58.283Z,99435.50
2022-11-21T22:56:27.289Z,99438.94
2022-11-21T22:58:54.686Z,99435.44
2022-11-21T23:01:24.724Z,99434.59
2022-11-21T23:03:52.216Z,99433.63
2022-11-21T23:06:21.982Z,99426.00
2022-11-21T23:08:49.162Z,99433.56
2022-11-21T23:11:19.547Z,99426.78
2022-11-21T23:13:47.994Z,99428.41
2022-11-21T23:16:16.303Z,99430.16
2022-11-21T23:18:44.240Z,99425.84
2022-11-21T23:21:12.651Z,99437.75
2022-11-21T23:23:40.209Z,99440.38
2022-11-21T23:26:07.722Z,99433.56
2022-11-21T23:28:35.041Z,99433.56
2022-11-21T23:31:02.401Z,99428.47
2022-11-21T23:33:29.573Z,99420.84
2022-11-21T23:35:56.769Z,99428.47
2022-11-21T23:38:23.953Z,99426.78
2022-11-21T23:40:51.321Z,99435.38
2022-11-21T23:43:19.202Z,99442.13
2022-11-21T23:45:50.840Z,99442.06
2022-11-21T23:48:18.281Z,99432.56
2022-11-21T23:50:47.341Z,99438.38
2022-11-21T23:53:14.581Z,99431.56
2022-11-21T23:55:43.369Z,99429.06
2022-11-21T23:58:11.194Z,99416.25
